createdAt,value
2023-03-07T00:01:36.697Z,94540.53
2023-03-07T00:04:10.675Z,94546.00
2023-03-07T00:07:07.219Z,94509.91
2023-03-07T00:10:07.240Z,94532.81
2023-03-07T00:15:48.225Z,94514.91
2023-03-07T00:18:40.754Z,94543.06
2023-03-07T00:21:48.791Z,94548.97
2023-03-07T00:24:23.477Z,94528.28
2023-03-07T00:27:13.580Z,94527.91
2023-03-07T00:29:52.054Z,94545.69
2023-03-07T00:33:16.944Z,94542.66
2023-03-07T00:36:26.006Z,94479.66
2023-03-07T00:43:04.034Z,94157.28
2023-03-07T00:46:04.424Z,94523.66
2023-03-07T00:48:42.462Z,94528.69
2023-03-07T00:51:24.068Z,94531.06
2023-03-07T00:53:53.195Z,94467.44
2023-03-07T00:56:39.398Z,94520.91
2023-03-07T00:59:55.597Z,94526.44
2023-03-07T01:02:57.338Z,94509.41
2023-03-07T01:08:40.950Z,94519.00
2023-03-07T01:14:14.135Z,94530.78
2023-03-07T01:16:58.358Z,94533.28
2023-03-07T01:19:43.189Z,94530.72
2023-03-07T01:22:33.176Z,94496.88
2023-03-07T01:25:08.224Z,94471.88
2023-03-07T01:27:38.969Z,94484.50
2023-03-07T01:30:09.442Z,94470.03
2023-03-07T01:32:47.261Z,94480.56
2023-03-07T01:35:23.515Z,94469.94
2023-03-07T01:37:57.672Z,94474.59
2023-03-07T01:40:41.530Z,94364.44
2023-03-07T01:43:43.101Z,94330.84
2023-03-07T01:46:38.448Z,94489.16
2023-03-07T01:49:32.193Z,94481.53
2023-03-07T01:52:25.596Z,94491.53
2023-03-07T01:55:25.340Z,94487.09
2023-03-07T01:58:07.612Z,94450.50
2023-03-07T02:03:34.812Z,94479.78
2023-03-07T02:06:28.035Z,94471.94
2023-03-07T02:09:26.317Z,94472.88
2023-03-07T02:12:09.008Z,94470.94
2023-03-07T02:14:39.562Z,94475.84
2023-03-07T02:17:12.764Z,94439.81
2023-03-07T02:20:01.410Z,94428.06
2023-03-07T02:22:41.982Z,94469.91
2023-03-07T02:25:44.321Z,94406.16
2023-03-07T02:31:22.088Z,94341.44
2023-03-07T02:34:01.585Z,94467.16
2023-03-07T02:36:37.631Z,94478.16
2023-03-07T02:39:08.998Z,94480.44
2023-03-07T02:41:40.709Z,94437.31
2023-03-07T02:44:29.424Z,94468.88
2023-03-07T02:47:12.175Z,94470.25
2023-03-07T02:56:05.929Z,94354.91
2023-03-07T02:58:43.269Z,94479.78
2023-03-07T03:01:51.220Z,94475.00
2023-03-07T03:04:54.378Z,94468.06
2023-03-07T03:11:04.754Z,94469.66
2023-03-07T03:16:36.338Z,94478.88
2023-03-07T03:19:21.186Z,94468.28
2023-03-07T03:22:02.923Z,94469.53
2023-03-07T03:24:42.598Z,94472.47
2023-03-07T03:27:32.908Z,94446.50
2023-03-07T03:30:18.382Z,94456.25
2023-03-07T03:33:19.179Z,94463.28
2023-03-07T03:35:53.682Z,94458.38
2023-03-07T03:38:31.663Z,94471.66
2023-03-07T03:41:13.279Z,94482.16
2023-03-07T03:43:54.597Z,94479.16
2023-03-07T03:46:26.453Z,94420.50
2023-03-07T03:49:04.627Z,94386.06
2023-03-07T03:51:43.823Z,94477.78
2023-03-07T03:54:24.289Z,94476.53
2023-03-07T03:57:26.200Z,94355.34
2023-03-07T04:00:11.083Z,94467.88
2023-03-07T04:06:41.627Z,94479.50
2023-03-07T04:09:27.815Z,94467.31
2023-03-07T04:12:49.042Z,94488.13
2023-03-07T04:15:47.832Z,94490.03
2023-03-07T04:18:24.120Z,94497.81
2023-03-07T04:21:12.513Z,94485.59
2023-03-07T04:24:00.011Z,94477.44
2023-03-07T04:26:58.750Z,94460.59
2023-03-07T04:33:08.921Z,94509.59
2023-03-07T04:38:49.677Z,94458.50
2023-03-07T04:41:33.472Z,94510.72
2023-03-07T04:44:24.401Z,94492.56
2023-03-07T04:47:12.451Z,94505.09
2023-03-07T04:56:08.445Z,94509.59
2023-03-07T04:58:49.503Z,94492.38
2023-03-07T05:10:35.549Z,94501.44
2023-03-07T05:16:52.845Z,94505.91
2023-03-07T05:19:50.970Z,94512.97
2023-03-07T05:22:45.959Z,94462.28
2023-03-07T05:25:18.034Z,94498.88
2023-03-07T05:28:13.623Z,94505.50
2023-03-07T05:30:58.419Z,94501.88
2023-03-07T05:33:41.492Z,94506.94
2023-03-07T05:36:11.639Z,94355.81
2023-03-07T05:38:40.863Z,94535.09
2023-03-07T05:41:08.714Z,94530.13
2023-03-07T05:43:36.613Z,94528.69
2023-03-07T05:46:04.583Z,94512.66
2023-03-07T05:48:36.723Z,94533.13
2023-03-07T05:57:31.863Z,94531.03
2023-03-07T06:00:37.386Z,94542.09
2023-03-07T06:09:25.593Z,94536.09
2023-03-07T06:12:11.946Z,94510.56
2023-03-07T06:14:58.145Z,94543.84
2023-03-07T06:17:32.743Z,94542.25
2023-03-07T06:20:13.914Z,94530.88
2023-03-07T06:26:12.426Z,94493.47
2023-03-07T06:29:00.351Z,94544.22
2023-03-07T06:32:06.125Z,94549.03
2023-03-07T06:34:42.556Z,94528.28
2023-03-07T06:37:17.408Z,94550.06
2023-03-07T06:39:56.679Z,94543.03
2023-03-07T06:42:41.255Z,94535.63
2023-03-07T06:45:27.442Z,94545.25
2023-03-07T06:54:14.038Z,94551.09
2023-03-07T06:57:20.595Z,94537.84
2023-03-07T07:00:05.114Z,94511.38
2023-03-07T07:05:55.610Z,94550.22
2023-03-07T07:11:36.299Z,94527.84
2023-03-07T07:14:31.563Z,94547.03
2023-03-07T07:17:29.180Z,94556.47
2023-03-07T07:19:59.771Z,94560.38
2023-03-07T07:25:30.201Z,94554.53
2023-03-07T07:28:01.224Z,94555.31
2023-03-07T07:30:37.607Z,94537.16
2023-03-07T07:36:17.851Z,94561.63
2023-03-07T07:39:09.618Z,94560.63
2023-03-07T07:44:39.072Z,94574.59
2023-03-07T07:47:22.319Z,94564.03
2023-03-07T07:49:52.507Z,94563.50
2023-03-07T07:52:29.915Z,94560.00
2023-03-07T07:55:05.513Z,94554.59
2023-03-07T07:57:46.854Z,94563.66
2023-03-07T08:00:26.506Z,94575.25
2023-03-07T08:03:26.030Z,94563.66
2023-03-07T08:06:30.256Z,94568.41
2023-03-07T08:09:16.984Z,94534.16
2023-03-07T08:11:58.627Z,94571.63
2023-03-07T08:14:29.416Z,94574.53
2023-03-07T08:16:59.090Z,94584.22
2023-03-07T08:19:28.105Z,94567.09
2023-03-07T08:21:56.483Z,94569.03
2023-03-07T08:24:35.228Z,94561.13
2023-03-07T08:27:09.597Z,94562.81
2023-03-07T08:29:37.592Z,94552.56
2023-03-07T08:32:06.100Z,94557.06
2023-03-07T08:34:35.215Z,94562.25
2023-03-07T08:37:03.305Z,94527.25
2023-03-07T08:39:31.126Z,94555.31
2023-03-07T08:41:59.806Z,94544.78
2023-03-07T08:44:29.840Z,94563.88
2023-03-07T08:46:57.722Z,94550.72
2023-03-07T08:49:25.719Z,94557.69
2023-03-07T08:51:53.566Z,94560.94
2023-03-07T08:54:21.497Z,94562.16
2023-03-07T08:56:50.094Z,94558.28
2023-03-07T08:59:17.981Z,94509.44
2023-03-07T09:01:49.541Z,94554.00
2023-03-07T09:04:17.480Z,94552.34
2023-03-07T09:06:45.428Z,94508.31
2023-03-07T09:09:14.334Z,94547.28
2023-03-07T09:11:42.212Z,94540.34
2023-03-07T09:14:10.286Z,94461.72
2023-03-07T09:16:39.459Z,94549.25
2023-03-07T09:19:09.008Z,94545.75
2023-03-07T09:21:37.372Z,94524.34
2023-03-07T09:24:06.098Z,94444.63
2023-03-07T09:26:34.413Z,94538.00
2023-03-07T09:29:02.286Z,94537.97
2023-03-07T09:31:30.308Z,94523.38
2023-03-07T09:33:58.954Z,94537.13
2023-03-07T09:36:28.250Z,94533.72
2023-03-07T09:38:58.259Z,94531.69
2023-03-07T09:41:49.268Z,94518.09
2023-03-07T09:44:29.004Z,94520.00
2023-03-07T09:47:11.719Z,94524.53
2023-03-07T09:49:46.061Z,94513.50
2023-03-07T09:52:18.226Z,94511.56
2023-03-07T09:54:51.745Z,94513.84
2023-03-07T09:57:24.145Z,94497.44
2023-03-07T09:59:56.805Z,94508.88
2023-03-07T10:02:29.319Z,94504.22
2023-03-07T10:05:05.516Z,94496.50
2023-03-07T10:07:36.621Z,94501.44
2023-03-07T10:10:13.310Z,94429.09
2023-03-07T10:13:16.730Z,94477.06
2023-03-07T10:15:48.891Z,94482.03
2023-03-07T10:18:38.437Z,94482.59
2023-03-07T10:21:15.699Z,94467.78
2023-03-07T10:24:08.333Z,94426.41
2023-03-07T10:26:43.110Z,94443.47
2023-03-07T10:29:16.578Z,94460.31
2023-03-07T10:31:49.090Z,94465.66
2023-03-07T10:34:27.073Z,94466.69
2023-03-07T10:37:08.530Z,94455.38
2023-03-07T10:39:43.835Z,94456.38
2023-03-07T10:42:13.633Z,94455.56
2023-03-07T10:44:41.934Z,94433.75
2023-03-07T10:47:20.067Z,94433.59
2023-03-07T10:49:50.757Z,94434.13
2023-03-07T10:52:33.202Z,94410.78
2023-03-07T10:55:36.377Z,94422.97
2023-03-07T10:58:20.246Z,94371.28
2023-03-07T11:01:15.649Z,94400.47
2023-03-07T11:03:58.186Z,94393.22
2023-03-07T11:06:29.913Z,94392.19
2023-03-07T11:08:58.401Z,94349.22
2023-03-07T11:11:32.397Z,94387.06
2023-03-07T11:14:13.371Z,94391.09
2023-03-07T11:16:43.437Z,94353.28
2023-03-07T11:19:37.125Z,94363.50
2023-03-07T11:22:16.971Z,94365.41
2023-03-07T11:24:51.217Z,94352.75
2023-03-07T11:27:24.842Z,94353.56
2023-03-07T11:30:10.105Z,94344.50
2023-03-07T11:32:43.363Z,94333.50
2023-03-07T11:35:20.128Z,94287.47
2023-03-07T11:37:56.887Z,94330.44
2023-03-07T11:40:27.683Z,94339.44
2023-03-07T11:43:07.247Z,94307.22
2023-03-07T11:45:43.618Z,94332.63
2023-03-07T11:48:33.941Z,94337.31
2023-03-07T11:51:04.684Z,94327.47
2023-03-07T11:53:58.289Z,94321.00
2023-03-07T11:56:32.084Z,94329.31
2023-03-07T11:59:27.377Z,94327.06
2023-03-07T12:01:59.202Z,94332.50
2023-03-07T12:05:07.042Z,94324.63
2023-03-07T12:07:48.786Z,94317.72
2023-03-07T12:10:31.097Z,94307.41
2023-03-07T12:13:19.092Z,94306.28
2023-03-07T12:15:58.680Z,94301.53
2023-03-07T12:18:44.077Z,94279.22
2023-03-07T12:21:26.677Z,94292.25
2023-03-07T12:24:01.781Z,94247.09
2023-03-07T12:26:36.623Z,94292.09
2023-03-07T12:29:11.196Z,94284.97
2023-03-07T12:31:43.505Z,94282.63
2023-03-07T12:34:23.803Z,94279.59
2023-03-07T12:36:55.237Z,94250.41
2023-03-07T12:39:29.996Z,94304.53
2023-03-07T12:42:04.641Z,94297.59
2023-03-07T12:44:40.358Z,94297.09
2023-03-07T12:47:18.088Z,94288.31
2023-03-07T12:49:52.696Z,94285.56
2023-03-07T12:52:32.043Z,94279.34
2023-03-07T12:55:08.477Z,94288.03
2023-03-07T12:57:43.669Z,94282.53
2023-03-07T13:00:17.521Z,94268.44
2023-03-07T13:02:54.427Z,94280.25
2023-03-07T13:05:24.141Z,94233.59
2023-03-07T13:07:53.164Z,94277.16
2023-03-07T13:10:23.407Z,94288.50
2023-03-07T13:12:52.135Z,94274.44
2023-03-07T13:16:03.566Z,94279.88
2023-03-07T13:18:35.384Z,94265.47
2023-03-07T13:21:33.089Z,94267.38
2023-03-07T13:24:36.214Z,94276.03
2023-03-07T13:27:05.388Z,94275.38
2023-03-07T13:30:04.647Z,94243.94
2023-03-07T13:32:58.547Z,94269.88
2023-03-07T13:35:54.129Z,94271.53
2023-03-07T13:38:37.846Z,94281.00
2023-03-07T13:41:06.834Z,94278.88
2023-03-07T13:44:00.117Z,94276.59
2023-03-07T13:47:01.382Z,94300.41
2023-03-07T13:49:50.294Z,94283.69
2023-03-07T13:52:30.488Z,94183.50
2023-03-07T13:55:01.607Z,94278.97
2023-03-07T13:57:36.341Z,94285.94
2023-03-07T14:00:05.812Z,94272.31
2023-03-07T14:02:35.094Z,94272.69
2023-03-07T14:05:04.362Z,94281.19
2023-03-07T14:07:36.022Z,94281.28
2023-03-07T14:10:21.959Z,94285.97
2023-03-07T14:13:14.668Z,94277.31
2023-03-07T14:15:53.172Z,94288.25
2023-03-07T14:18:34.626Z,94285.59
2023-03-07T14:21:12.222Z,94307.38
2023-03-07T14:24:01.776Z,94256.47
2023-03-07T14:26:34.916Z,94281.31
2023-03-07T14:29:05.312Z,94280.50
2023-03-07T14:31:40.889Z,94265.38
2023-03-07T14:34:19.919Z,94289.84
2023-03-07T14:36:51.225Z,94284.03
2023-03-07T14:39:19.397Z,94282.78
2023-03-07T14:41:56.319Z,94285.16
2023-03-07T14:44:57.514Z,94293.81
2023-03-07T14:47:42.438Z,94294.59
2023-03-07T14:50:15.082Z,94288.34
2023-03-07T14:52:44.592Z,94300.03
2023-03-07T14:55:18.959Z,94232.78
2023-03-07T14:57:52.693Z,94293.41
2023-03-07T15:00:28.243Z,94295.38
2023-03-07T15:02:57.950Z,94291.47
2023-03-07T15:05:28.552Z,94282.09
2023-03-07T15:07:59.251Z,94297.63
2023-03-07T15:10:33.351Z,94294.59
2023-03-07T15:13:09.371Z,94285.59
2023-03-07T15:15:41.504Z,94294.53
2023-03-07T15:18:22.700Z,94289.06
2023-03-07T15:20:53.140Z,94243.59
2023-03-07T15:23:24.259Z,94286.34
2023-03-07T15:25:57.173Z,94287.47
2023-03-07T15:28:31.353Z,94265.31
2023-03-07T15:30:59.582Z,94271.91
2023-03-07T15:33:30.968Z,94273.47
2023-03-07T15:36:28.348Z,94276.56
2023-03-07T15:39:28.054Z,94242.34
2023-03-07T15:42:04.533Z,94285.44
2023-03-07T15:44:34.848Z,94273.75
2023-03-07T15:47:13.310Z,94279.22
2023-03-07T15:49:45.690Z,94282.69
2023-03-07T15:52:46.885Z,94281.09
2023-03-07T15:55:20.316Z,94275.22
2023-03-07T15:58:05.944Z,94272.41
2023-03-07T16:00:38.019Z,94294.47
2023-03-07T16:03:40.931Z,94269.16
2023-03-07T16:07:07.008Z,94258.19
2023-03-07T16:09:40.551Z,94299.81
2023-03-07T16:15:43.372Z,94183.00
2023-03-07T16:18:43.470Z,94316.38
2023-03-07T16:21:14.881Z,94278.22
2023-03-07T16:23:44.127Z,94144.31
2023-03-07T16:26:16.300Z,94311.66
2023-03-07T16:28:45.530Z,94307.38
2023-03-07T16:31:17.910Z,94312.41
2023-03-07T16:34:11.912Z,94320.88
2023-03-07T16:36:51.243Z,94190.06
2023-03-07T16:39:43.471Z,94169.00
2023-03-07T16:42:35.384Z,94329.72
2023-03-07T16:45:14.066Z,94328.88
2023-03-07T16:48:03.417Z,94333.50
2023-03-07T16:50:57.608Z,94334.63
2023-03-07T16:53:37.768Z,94340.41
2023-03-07T16:56:09.016Z,94335.38
2023-03-07T16:58:55.086Z,94288.53
2023-03-07T17:01:31.218Z,94312.72
2023-03-07T17:04:09.602Z,94353.13
2023-03-07T17:06:47.400Z,94339.47
2023-03-07T17:09:25.282Z,94344.56
2023-03-07T17:11:56.856Z,94334.38
2023-03-07T17:14:47.039Z,94348.03
2023-03-07T17:17:41.274Z,94359.16
2023-03-07T17:20:32.920Z,94344.47
2023-03-07T17:23:42.061Z,94357.16
2023-03-07T17:26:32.438Z,94354.38
2023-03-07T17:29:22.103Z,94350.09
2023-03-07T17:32:21.888Z,94362.81
2023-03-07T17:35:05.857Z,94357.00
2023-03-07T17:38:19.731Z,94355.03
2023-03-07T17:41:01.305Z,94361.91
2023-03-07T17:43:38.836Z,94364.28
2023-03-07T17:46:15.257Z,94344.88
2023-03-07T17:49:10.900Z,94356.44
2023-03-07T17:51:40.500Z,94351.63
2023-03-07T17:56:44.948Z,94362.38
2023-03-07T17:59:16.786Z,94363.91
2023-03-07T18:02:21.071Z,94363.13
2023-03-07T18:04:53.946Z,94367.72
2023-03-07T18:07:24.998Z,94353.22
2023-03-07T18:10:08.240Z,94371.47
2023-03-07T18:12:43.350Z,94371.34
2023-03-07T18:15:17.131Z,94368.94
2023-03-07T18:17:55.198Z,94361.06
2023-03-07T18:20:33.316Z,94376.25
2023-03-07T18:23:30.160Z,94270.94
2023-03-07T18:26:10.736Z,94379.66
2023-03-07T18:28:50.921Z,94377.38
2023-03-07T18:34:43.333Z,94377.88
2023-03-07T18:37:20.149Z,94378.09
2023-03-07T18:43:07.019Z,94387.38
2023-03-07T18:45:49.335Z,94390.91
2023-03-07T18:48:28.470Z,94365.34
2023-03-07T18:51:14.431Z,94383.59
2023-03-07T18:54:06.416Z,94382.88
2023-03-07T18:56:53.436Z,94387.16
2023-03-07T18:59:51.200Z,94396.00
2023-03-07T19:02:33.447Z,94389.41
2023-03-07T19:05:14.497Z,94394.75
2023-03-07T19:07:53.266Z,94396.63
2023-03-07T19:10:40.726Z,94330.94
2023-03-07T19:13:18.435Z,94401.03
2023-03-07T19:16:04.697Z,94405.63
2023-03-07T19:19:02.970Z,94400.09
2023-03-07T19:21:43.126Z,94408.59
2023-03-07T19:24:22.857Z,94357.81
2023-03-07T19:26:56.297Z,94391.28
2023-03-07T19:29:26.563Z,94409.78
2023-03-07T19:32:11.470Z,94336.63
2023-03-07T19:34:55.632Z,94404.66
2023-03-07T19:37:26.013Z,94369.16
2023-03-07T19:40:04.465Z,94422.84
2023-03-07T19:42:35.614Z,94420.00
2023-03-07T19:45:15.802Z,94421.88
2023-03-07T19:47:48.343Z,94430.88
2023-03-07T19:50:33.484Z,94419.25
2023-03-07T19:53:08.311Z,94426.91
2023-03-07T19:55:44.966Z,94400.81
2023-03-07T19:58:16.628Z,94407.66
2023-03-07T20:03:21.350Z,94417.75
2023-03-07T20:06:13.809Z,94429.81
2023-03-07T20:08:54.907Z,94429.78
2023-03-07T20:11:28.192Z,94396.03
2023-03-07T20:13:58.258Z,94437.06
2023-03-07T20:16:34.118Z,94431.94
2023-03-07T20:19:10.996Z,94399.75
2023-03-07T20:21:49.724Z,94416.00
2023-03-07T20:24:21.838Z,94411.72
2023-03-07T20:26:50.051Z,94442.56
2023-03-07T20:29:17.936Z,94445.50
2023-03-07T20:31:45.859Z,94447.06
2023-03-07T20:34:17.724Z,94423.63
2023-03-07T20:37:02.758Z,94444.19
2023-03-07T20:39:32.751Z,94447.50
2023-03-07T20:44:52.150Z,94458.94
2023-03-07T20:47:23.986Z,94462.56
2023-03-07T20:49:54.248Z,94451.75
2023-03-07T20:52:25.323Z,94460.34
2023-03-07T20:55:00.158Z,94425.28
2023-03-07T20:57:32.225Z,94462.84
2023-03-07T21:00:30.749Z,94471.81
2023-03-07T21:03:11.829Z,94471.59
2023-03-07T21:05:41.403Z,94408.66
2023-03-07T21:08:35.014Z,94415.56
2023-03-07T21:11:05.275Z,94445.69
2023-03-07T21:13:58.375Z,94460.22
2023-03-07T21:16:30.331Z,94450.63
2023-03-07T21:22:20.991Z,94469.44
2023-03-07T21:24:54.337Z,94469.22
2023-03-07T21:27:27.830Z,94434.28
2023-03-07T21:30:02.849Z,94467.06
2023-03-07T21:32:38.112Z,94464.28
2023-03-07T21:37:59.532Z,94441.41
2023-03-07T21:40:36.975Z,94465.59
2023-03-07T21:43:17.842Z,94451.09
2023-03-07T21:45:55.742Z,94460.72
2023-03-07T21:48:30.369Z,94448.16
2023-03-07T21:51:24.629Z,94399.94
2023-03-07T21:54:20.911Z,94461.56
2023-03-07T21:56:52.811Z,94470.19
2023-03-07T21:59:22.808Z,94468.06
2023-03-07T22:05:08.915Z,94461.13
2023-03-07T22:07:49.435Z,94395.97
2023-03-07T22:10:27.128Z,94472.72
2023-03-07T22:12:58.260Z,94466.59
2023-03-07T22:18:52.940Z,94461.69
2023-03-07T22:21:22.133Z,94468.94
2023-03-07T22:23:58.586Z,94469.81
2023-03-07T22:26:36.297Z,94465.53
2023-03-07T22:29:09.190Z,94466.19
2023-03-07T22:31:48.994Z,94470.56
2023-03-07T22:34:20.120Z,94454.44
2023-03-07T22:37:12.285Z,94459.81
2023-03-07T22:39:57.273Z,94463.72
2023-03-07T22:42:36.051Z,94454.06
2023-03-07T22:45:16.736Z,94470.97
2023-03-07T22:48:04.855Z,94475.47
2023-03-07T22:53:37.947Z,94461.94
2023-03-07T22:56:27.848Z,94480.63
2023-03-07T22:59:08.372Z,94470.19
2023-03-07T23:02:17.695Z,94482.25
2023-03-07T23:05:00.501Z,94482.47
2023-03-07T23:07:32.479Z,94486.03
2023-03-07T23:13:08.518Z,94329.91
2023-03-07T23:15:49.407Z,94497.81
2023-03-07T23:18:40.706Z,94467.75
2023-03-07T23:22:13.556Z,94496.75
2023-03-07T23:25:25.084Z,94492.34
2023-03-07T23:32:39.067Z,94500.25
2023-03-07T23:35:46.856Z,94501.25
2023-03-07T23:39:06.966Z,94197.94
